Time;durP1;ratioP1;P1;durP2;ratioP2;P2;SDS_P1;SDS_P2;PMS_P1;PMS_P2;Temp;Humidity;BMP_temperature;BMP_pressure;BME280_temperature;BME280_humidity;BME280_pressure;Samples;Min_cycle;Max_cycle;Signal;HPM_P1;HPM_P2
2024/01/14 00:00:08;;;;;;;221.57;65.73;;;;;;;1.04;100.00;101602.66;5042436;28;20029;-64
2024/01/14 00:02:34;;;;;;;222.93;66.57;;;;;;;1.00;100.00;101595.94;5042741;28;20391;-64
2024/01/14 00:04:59;;;;;;;235.70;69.00;;;;;;;1.03;100.00;101595.75;5041893;28;20052;-64
2024/01/14 00:07:25;;;;;;;234.73;67.83;;;;;;;1.01;100.00;101595.00;5042945;28;20037;-64
2024/01/14 00:09:50;;;;;;;217.33;66.03;;;;;;;1.05;100.00;101606.13;5040917;28;20032;-64
2024/01/14 00:12:15;;;;;;;229.10;69.67;;;;;;;1.04;100.00;101581.75;5041626;28;20040;-64
2024/01/14 00:14:41;;;;;;;233.03;67.67;;;;;;;1.06;100.00;101586.88;5038846;28;21639;-64
2024/01/14 00:17:07;;;;;;;229.83;67.87;;;;;;;1.06;100.00;101579.03;5042688;28;20029;-64
2024/01/14 00:19:32;;;;;;;234.47;68.33;;;;;;;1.07;100.00;101578.94;5043888;28;20600;-65
2024/01/14 00:21:57;;;;;;;233.73;68.77;;;;;;;1.07;100.00;101576.34;5037666;28;20041;-64
2024/01/14 00:24:23;;;;;;;224.77;68.17;;;;;;;1.07;100.00;101575.50;5040932;28;20029;-64
2024/01/14 00:26:48;;;;;;;222.10;64.33;;;;;;;1.09;100.00;101576.25;5040935;28;20051;-64
2024/01/14 00:29:13;;;;;;;219.77;64.50;;;;;;;1.08;100.00;101559.69;5036430;28;20553;-64
2024/01/14 00:31:39;;;;;;;237.77;67.20;;;;;;;1.10;100.00;101559.59;5043896;28;20397;-64
2024/01/14 00:34:04;;;;;;;212.27;64.47;;;;;;;1.10;100.00;101581.38;5042678;28;20025;-64
2024/01/14 00:36:29;;;;;;;230.43;65.13;;;;;;;1.12;100.00;101570.81;5047140;28;20048;-64
2024/01/14 00:38:55;;;;;;;214.10;62.77;;;;;;;1.12;100.00;101571.66;5038031;28;20125;-64
2024/01/14 00:41:20;;;;;;;224.17;66.97;;;;;;;1.13;100.00;101565.50;5038551;28;20040;-64
2024/01/14 00:43:46;;;;;;;206.20;62.30;;;;;;;1.11;100.00;101553.44;5048655;28;20028;-64
2024/01/14 00:46:12;;;;;;;222.57;65.20;;;;;;;1.14;100.00;101551.47;5036032;28;20039;-65
2024/01/14 00:48:37;;;;;;;216.77;63.30;;;;;;;1.13;100.00;101560.25;5037598;28;20387;-64
2024/01/14 00:51:02;;;;;;;223.23;63.47;;;;;;;1.14;100.00;101554.09;5034035;28;20029;-64
2024/01/14 00:53:27;;;;;;;220.10;61.07;;;;;;;1.15;100.00;101553.16;5035969;28;20025;-64
2024/01/14 00:55:53;;;;;;;216.23;64.03;;;;;;;1.17;100.00;101540.03;5044032;28;20032;-65
2024/01/14 00:58:18;;;;;;;207.60;60.53;;;;;;;1.17;100.00;101556.56;5037649;28;20211;-64
2024/01/14 01:00:43;;;;;;;221.33;62.67;;;;;;;1.16;100.00;101554.03;5037100;28;20036;-64
2024/01/14 01:03:09;;;;;;;222.33;62.47;;;;;;;1.18;100.00;101546.94;5052343;28;20094;-64
2024/01/14 01:05:34;;;;;;;209.63;63.13;;;;;;;1.15;100.00;101536.63;5038982;28;20110;-65
2024/01/14 01:08:01;;;;;;;197.57;57.17;;;;;;;1.18;100.00;101541.69;5048808;28;20510;-65
2024/01/14 01:10:26;;;;;;;235.47;65.93;;;;;;;1.18;100.00;101531.25;5043806;28;20025;-65
2024/01/14 01:12:52;;;;;;;223.60;64.43;;;;;;;1.17;100.00;101537.41;5040574;28;20087;-65
2024/01/14 01:15:17;;;;;;;218.10;63.00;;;;;;;1.17;100.00;101540.03;5038110;28;20529;-65
2024/01/14 01:17:42;;;;;;;216.60;64.57;;;;;;;1.14;100.00;101538.41;5040921;28;20417;-65
2024/01/14 01:20:08;;;;;;;220.67;63.93;;;;;;;1.14;100.00;101527.09;5031195;28;20402;-65
2024/01/14 01:22:34;;;;;;;195.67;60.23;;;;;;;1.12;100.00;101518.50;5033541;28;20029;-65
2024/01/14 01:24:59;;;;;;;204.80;62.57;;;;;;;1.06;100.00;101508.44;5033411;28;20025;-64
2024/01/14 01:27:25;;;;;;;223.83;66.50;;;;;;;1.09;100.00;101524.78;5033203;28;20418;-64
2024/01/14 01:29:51;;;;;;;216.57;63.03;;;;;;;1.10;100.00;101512.53;5040818;28;20082;-65
2024/01/14 01:32:16;;;;;;;214.80;62.43;;;;;;;1.08;100.00;101523.09;5040369;28;20036;-65
2024/01/14 01:34:42;;;;;;;216.00;62.70;;;;;;;1.08;100.00;101514.41;5037730;28;20036;-65
2024/01/14 01:37:08;;;;;;;216.93;64.73;;;;;;;1.08;100.00;101506.56;5040612;28;20037;-65
2024/01/14 01:39:33;;;;;;;207.03;62.83;;;;;;;1.07;100.00;101487.41;5037207;28;20041;-65
2024/01/14 01:41:59;;;;;;;216.93;62.60;;;;;;;1.11;100.00;101485.44;5037082;28;20378;-65
2024/01/14 01:44:24;;;;;;;228.60;64.10;;;;;;;1.09;100.00;101489.91;5039826;28;20078;-64
2024/01/14 01:46:50;;;;;;;211.47;61.53;;;;;;;1.10;100.00;101491.59;5038559;28;20147;-65
2024/01/14 01:49:16;;;;;;;224.43;64.00;;;;;;;1.11;100.00;101506.38;5039850;28;20032;-65
2024/01/14 01:51:44;;;;;;;196.53;60.10;;;;;;;1.13;100.00;101501.88;5036400;28;20041;-65
2024/01/14 01:54:11;;;;;;;196.00;56.42;;;;;;;1.13;100.00;101501.88;5039599;28;20406;-65
2024/01/14 01:56:38;;;;;;;185.23;60.37;;;;;;;1.13;100.00;101500.09;5038455;28;20771;-65
2024/01/14 01:59:04;;;;;;;183.77;56.33;;;;;;;1.15;100.00;101497.38;5040432;28;20033;-65
2024/01/14 02:01:32;;;;;;;191.50;57.73;;;;;;;1.13;100.00;101487.03;5041635;28;20036;-64
2024/01/14 02:04:00;;;;;;;189.27;57.47;;;;;;;1.14;100.00;101487.88;5032796;28;20068;-65
2024/01/14 02:06:27;;;;;;;185.97;56.43;;;;;;;1.15;100.00;101494.78;5039640;28;20036;-64
2024/01/14 02:08:53;;;;;;;182.60;58.07;;;;;;;1.15;100.00;101492.16;5036781;28;20021;-65
2024/01/14 02:11:20;;;;;;;186.00;60.53;;;;;;;1.15;100.00;101494.78;5040271;28;20143;-65
2024/01/14 02:13:45;;;;;;;185.90;61.10;;;;;;;1.15;100.00;101484.31;5035841;28;20501;-64
2024/01/14 02:16:12;;;;;;;183.27;61.27;;;;;;;1.13;100.00;101475.72;5039730;28;20028;-66
2024/01/14 02:18:37;;;;;;;186.20;60.20;;;;;;;1.12;100.00;101477.50;5035266;28;20556;-65
2024/01/14 02:21:03;;;;;;;195.53;61.57;;;;;;;1.09;100.00;101472.47;5033541;28;20025;-66
2024/01/14 02:23:34;;;;;;;181.20;56.83;;;;;;;1.08;100.00;101473.38;5036796;28;20504;-66
2024/01/14 02:26:00;;;;;;;189.57;62.00;;;;;;;1.08;100.00;101478.63;5037648;28;20028;-65
2024/01/14 02:28:25;;;;;;;186.00;58.93;;;;;;;1.07;100.00;101474.31;5043871;28;20520;-65
2024/01/14 02:30:52;;;;;;;196.60;60.37;;;;;;;1.07;100.00;101473.50;5038577;28;20033;-65
2024/01/14 02:33:18;;;;;;;196.40;61.43;;;;;;;1.07;100.00;101463.88;5039180;28;20056;-65
2024/01/14 02:35:44;;;;;;;198.93;59.50;;;;;;;1.07;100.00;101463.03;5040835;28;20087;-64
2024/01/14 02:38:09;;;;;;;205.57;62.27;;;;;;;1.06;100.00;101462.19;5039117;28;20025;-65
2024/01/14 02:40:34;;;;;;;206.70;62.07;;;;;;;1.07;100.00;101457.78;5037385;28;20047;-65
2024/01/14 02:43:00;;;;;;;199.60;60.80;;;;;;;1.06;100.00;101443.88;5036017;28;20512;-65
2024/01/14 02:45:29;;;;;;;211.07;61.57;;;;;;;1.07;100.00;101447.34;5033752;28;20036;-65
2024/01/14 02:47:54;;;;;;;213.38;65.38;;;;;;;1.07;100.00;101458.63;5035753;28;20024;-65
2024/01/14 02:50:20;;;;;;;207.73;64.80;;;;;;;1.06;100.00;101443.03;5030126;28;20029;-65
2024/01/14 02:52:45;;;;;;;215.00;65.17;;;;;;;1.05;100.00;101441.34;5033866;28;20086;-65
2024/01/14 02:55:10;;;;;;;223.23;66.23;;;;;;;1.05;100.00;101436.97;5038470;28;20584;-65
2024/01/14 02:57:35;;;;;;;214.10;65.73;;;;;;;1.05;100.00;101430.91;5036726;28;20032;-65
2024/01/14 03:00:01;;;;;;;232.20;68.20;;;;;;;1.05;100.00;101428.28;5037340;28;20064;-65
2024/01/14 03:02:26;;;;;;;213.77;66.90;;;;;;;1.05;100.00;101430.91;5036205;28;20041;-65
2024/01/14 03:04:51;;;;;;;215.20;63.47;;;;;;;1.04;100.00;101424.00;5034904;28;20041;-65
2024/01/14 03:07:17;;;;;;;199.60;61.70;;;;;;;1.04;100.00;101429.22;5036128;28;20039;-65
2024/01/14 03:09:42;;;;;;;205.43;62.63;;;;;;;1.05;100.00;101423.06;5032850;28;20028;-65
2024/01/14 03:12:07;;;;;;;200.13;59.60;;;;;;;1.04;100.00;101424.81;5039862;28;20461;-65
2024/01/14 03:14:34;;;;;;;185.57;59.20;;;;;;;1.03;100.00;101423.16;5037034;28;20031;-65
2024/01/14 03:16:59;;;;;;;180.20;57.87;;;;;;;1.04;100.00;101405.69;5030996;28;20035;-64
2024/01/14 03:19:25;;;;;;;182.57;59.37;;;;;;;1.03;100.00;101420.53;5035476;28;20072;-65
2024/01/14 03:21:51;;;;;;;179.20;58.17;;;;;;;1.02;100.00;101415.41;5031153;28;20029;-65
2024/01/14 03:24:17;;;;;;;180.30;59.83;;;;;;;1.02;100.00;101407.56;5043103;28;20124;-64
2024/01/14 03:26:42;;;;;;;183.10;61.00;;;;;;;1.01;100.00;101411.94;5041314;28;20039;-65
2024/01/14 03:29:07;;;;;;;176.17;59.93;;;;;;;1.02;100.00;101423.25;5039256;28;20065;-65
2024/01/14 03:31:32;;;;;;;184.43;59.10;;;;;;;1.00;100.00;101419.88;5039013;28;20036;-65
2024/01/14 03:33:58;;;;;;;186.30;58.97;;;;;;;1.01;100.00;101413.72;5038173;28;20033;-65
2024/01/14 03:36:23;;;;;;;195.40;59.47;;;;;;;0.99;100.00;101416.44;5049669;28;20556;-65
2024/01/14 03:38:48;;;;;;;179.73;57.30;;;;;;;0.98;100.00;101401.69;5042864;28;20036;-65
2024/01/14 03:41:14;;;;;;;180.50;60.30;;;;;;;1.00;100.00;101404.19;5039063;28;20453;-65
2024/01/14 03:43:39;;;;;;;186.33;60.00;;;;;;;0.97;100.00;101394.78;5041495;28;20599;-65
2024/01/14 03:46:04;;;;;;;178.40;56.83;;;;;;;0.97;100.00;101407.00;5036616;28;20094;-64
2024/01/14 03:48:30;;;;;;;185.07;60.00;;;;;;;0.97;100.00;101393.94;5037467;28;20304;-64
2024/01/14 03:50:55;;;;;;;184.63;60.33;;;;;;;0.93;100.00;101378.44;5037931;28;20057;-64
2024/01/14 03:53:20;;;;;;;169.30;58.27;;;;;;;0.95;100.00;101382.72;5036344;28;20025;-65
2024/01/14 03:55:47;;;;;;;177.50;57.30;;;;;;;0.93;100.00;101383.66;5037576;28;20029;-65
2024/01/14 03:58:13;;;;;;;176.33;58.13;;;;;;;0.93;100.00;101377.59;5040631;28;20131;-64
2024/01/14 04:00:38;;;;;;;162.67;55.37;;;;;;;0.93;100.00;101367.97;5038574;28;20033;-65
2024/01/14 04:03:04;;;;;;;171.03;55.93;;;;;;;0.93;100.00;101375.81;5039702;28;20033;-64
2024/01/14 04:05:29;;;;;;;175.03;57.37;;;;;;;0.91;100.00;101375.06;5038103;28;20554;-64
2024/01/14 04:07:54;;;;;;;168.87;57.47;;;;;;;0.89;100.00;101373.50;5039568;28;20037;-65
2024/01/14 04:10:20;;;;;;;175.90;58.90;;;;;;;0.89;100.00;101374.34;5040993;28;20074;-64
2024/01/14 04:12:45;;;;;;;170.37;56.47;;;;;;;0.89;100.00;101363.88;5036183;28;20391;-64
2024/01/14 04:15:10;;;;;;;165.43;56.50;;;;;;;0.88;100.00;101364.81;5038622;28;20028;-64
2024/01/14 04:17:36;;;;;;;174.40;56.47;;;;;;;0.87;100.00;101363.13;5035558;28;20669;-64
2024/01/14 04:20:01;;;;;;;159.30;53.93;;;;;;;0.87;100.00;101360.53;5040992;28;20570;-65
2024/01/14 04:22:27;;;;;;;154.03;54.27;;;;;;;0.86;100.00;101366.66;5038440;28;20024;-64
2024/01/14 04:24:52;;;;;;;155.03;53.47;;;;;;;0.87;100.00;101370.13;5035916;28;21401;-65
2024/01/14 04:27:18;;;;;;;154.87;56.80;;;;;;;0.84;100.00;101371.13;5041469;28;20060;-64
2024/01/14 04:29:43;;;;;;;152.70;56.67;;;;;;;0.81;100.00;101373.94;5041306;28;20021;-64
2024/01/14 04:32:09;;;;;;;158.60;54.40;;;;;;;0.79;100.00;101362.75;5042263;28;20036;-64
2024/01/14 04:34:34;;;;;;;153.67;53.27;;;;;;;0.79;100.00;101367.97;5037327;28;20111;-64
2024/01/14 04:37:00;;;;;;;154.23;54.07;;;;;;;0.78;100.00;101361.06;5040125;28;20094;-64
2024/01/14 04:39:25;;;;;;;161.53;54.40;;;;;;;0.76;100.00;101360.31;5043359;28;20040;-64
2024/01/14 04:41:51;;;;;;;154.37;54.20;;;;;;;0.76;100.00;101359.50;5040739;28;20085;-64
2024/01/14 04:44:16;;;;;;;147.40;50.67;;;;;;;0.76;100.00;101356.88;5036377;28;20032;-64
2024/01/14 04:46:42;;;;;;;149.47;52.10;;;;;;;0.78;100.00;101350.63;5036779;28;20033;-64
2024/01/14 04:49:07;;;;;;;144.13;52.33;;;;;;;0.76;100.00;101346.41;5041784;28;20071;-65
2024/01/14 04:51:32;;;;;;;138.13;51.27;;;;;;;0.75;100.00;101349.97;5039273;28;20071;-64
2024/01/14 04:53:58;;;;;;;136.67;50.37;;;;;;;0.74;100.00;101346.50;5034512;28;20140;-64
2024/01/14 04:56:23;;;;;;;129.43;50.27;;;;;;;0.76;100.00;101351.66;5038827;28;20067;-64
2024/01/14 04:58:48;;;;;;;129.30;48.47;;;;;;;0.75;100.00;101350.81;5035852;28;20148;-64
2024/01/14 05:01:14;;;;;;;120.60;47.60;;;;;;;0.75;100.00;101349.97;5036537;28;20068;-65
2024/01/14 05:03:39;;;;;;;113.60;44.67;;;;;;;0.72;100.00;101339.72;5038867;28;20037;-64
2024/01/14 05:06:05;;;;;;;108.17;44.13;;;;;;;0.70;100.00;101328.50;5036483;28;20036;-64
2024/01/14 05:08:30;;;;;;;108.17;42.37;;;;;;;0.69;100.00;101326.81;5034025;28;20600;-64
2024/01/14 05:10:55;;;;;;;100.57;41.80;;;;;;;0.68;100.00;101325.16;5033569;28;20033;-64
2024/01/14 05:13:21;;;;;;;109.83;42.80;;;;;;;0.66;100.00;101330.47;5040760;28;20095;-64
2024/01/14 05:15:46;;;;;;;101.43;39.63;;;;;;;0.64;100.00;101319.28;5033893;28;20025;-65
2024/01/14 05:18:12;;;;;;;109.13;41.83;;;;;;;0.63;100.00;101320.22;5031497;28;20041;-64
2024/01/14 05:20:37;;;;;;;98.83;40.87;;;;;;;0.63;100.00;101320.22;5033330;28;20106;-65
2024/01/14 05:23:04;;;;;;;107.07;41.83;;;;;;;0.63;100.00;101314.16;5039915;28;20029;-64
2024/01/14 05:25:29;;;;;;;92.40;39.77;;;;;;;0.62;100.00;101310.69;5037694;28;20074;-65
2024/01/14 05:27:54;;;;;;;102.43;41.67;;;;;;;0.61;100.00;101314.25;5037765;28;20026;-65
2024/01/14 05:30:20;;;;;;;98.60;40.63;;;;;;;0.60;100.00;101313.41;5039148;28;20132;-64
2024/01/14 05:32:45;;;;;;;99.63;41.93;;;;;;;0.59;100.00;101313.50;5040542;28;20036;-65
2024/01/14 05:35:10;;;;;;;104.13;43.00;;;;;;;0.56;100.00;101306.66;5039523;28;20837;-65
2024/01/14 05:37:36;;;;;;;101.10;40.13;;;;;;;0.56;100.00;101306.66;5050260;28;20054;-64
2024/01/14 05:40:01;;;;;;;100.00;40.80;;;;;;;0.55;100.00;101309.38;5043501;28;20069;-64
2024/01/14 05:42:28;;;;;;;92.47;38.43;;;;;;;0.53;100.00;101298.19;5042314;28;20091;-64
2024/01/14 05:44:53;;;;;;;100.20;39.93;;;;;;;0.47;100.00;101291.56;5047026;28;20886;-64
2024/01/14 05:47:19;;;;;;;95.23;39.23;;;;;;;0.49;100.00;101296.69;5043064;28;20032;-65
2024/01/14 05:49:44;;;;;;;97.87;40.37;;;;;;;0.49;100.00;101294.91;5038941;28;20025;-65
2024/01/14 05:52:10;;;;;;;101.30;40.93;;;;;;;0.49;100.00;101301.91;5031490;28;20044;-65
2024/01/14 05:54:36;;;;;;;101.00;39.13;;;;;;;0.47;100.00;101288.94;5035964;28;20821;-65
2024/01/14 05:57:01;;;;;;;96.50;40.10;;;;;;;0.44;100.00;101281.31;5041086;28;20039;-65
2024/01/14 05:59:26;;;;;;;102.50;39.40;;;;;;;0.47;100.00;101273.28;5035272;28;20386;-65
2024/01/14 06:01:51;;;;;;;97.40;38.13;;;;;;;0.48;100.00;101280.19;5035662;28;20664;-65
2024/01/14 06:04:18;;;;;;;99.70;39.03;;;;;;;0.48;100.00;101274.94;5034926;28;20025;-64
2024/01/14 06:06:43;;;;;;;104.10;40.97;;;;;;;0.48;100.00;101274.94;5034839;28;20540;-64
2024/01/14 06:09:08;;;;;;;102.57;39.90;;;;;;;0.48;100.00;101272.34;5033913;28;20612;-64
2024/01/14 06:11:34;;;;;;;101.80;38.23;;;;;;;0.48;100.00;101261.06;5040101;28;20852;-64
2024/01/14 06:13:59;;;;;;;101.43;38.47;;;;;;;0.48;100.00;101263.66;5032803;28;20124;-65
2024/01/14 06:16:25;;;;;;;105.13;39.70;;;;;;;0.48;100.00;101266.28;5036869;28;20025;-65
2024/01/14 06:18:51;;;;;;;101.13;39.77;;;;;;;0.46;100.00;101255.09;5035481;28;20489;-64
2024/01/14 06:21:16;;;;;;;103.97;40.37;;;;;;;0.48;100.00;101256.66;5038822;28;20675;-64
2024/01/14 06:23:42;;;;;;;104.97;39.93;;;;;;;0.48;100.00;101248.81;5037037;28;20689;-64
2024/01/14 06:26:07;;;;;;;106.30;40.07;;;;;;;0.49;100.00;101262.72;5038414;28;20033;-65
2024/01/14 06:28:33;;;;;;;102.60;40.27;;;;;;;0.50;100.00;101256.56;5036802;28;20025;-65
2024/01/14 06:30:58;;;;;;;100.13;39.30;;;;;;;0.50;100.00;101265.25;5039460;28;20110;-64
2024/01/14 06:33:23;;;;;;;94.23;38.87;;;;;;;0.52;100.00;101258.16;5041147;28;20032;-65
2024/01/14 06:35:48;;;;;;;102.60;40.30;;;;;;;0.52;100.00;101259.91;5039978;28;20832;-65
2024/01/14 06:38:14;;;;;;;100.20;39.93;;;;;;;0.51;100.00;101250.41;5042113;28;20123;-64
2024/01/14 06:40:39;;;;;;;104.23;40.20;;;;;;;0.53;100.00;101253.75;5035483;28;20042;-64
2024/01/14 06:43:05;;;;;;;102.40;40.47;;;;;;;0.53;100.00;101245.91;5037264;28;20021;-64
2024/01/14 06:45:30;;;;;;;103.47;40.77;;;;;;;0.51;100.00;101229.50;5037362;28;20609;-64
2024/01/14 06:47:55;;;;;;;95.80;37.73;;;;;;;0.52;100.00;101228.56;5042516;28;20033;-65
2024/01/14 06:50:21;;;;;;;101.87;40.60;;;;;;;0.52;100.00;101237.25;5036417;28;20634;-64
2024/01/14 06:52:46;;;;;;;102.73;39.27;;;;;;;0.52;100.00;101228.56;5043221;28;20993;-64
2024/01/14 06:55:13;;;;;;;96.67;39.47;;;;;;;0.53;100.00;101225.00;5031703;28;20123;-65
2024/01/14 06:57:38;;;;;;;101.10;39.67;;;;;;;0.52;100.00;101218.94;5043153;28;20033;-64
2024/01/14 07:00:04;;;;;;;94.37;36.20;;;;;;;0.50;100.00;101220.81;5042636;28;20052;-64
2024/01/14 07:02:30;;;;;;;99.07;36.33;;;;;;;0.52;100.00;101218.94;5033436;28;20859;-64
2024/01/14 07:04:56;;;;;;;91.00;36.77;;;;;;;0.51;100.00;101214.66;5047099;28;20025;-65
2024/01/14 07:07:22;;;;;;;94.67;37.03;;;;;;;0.49;100.00;101211.31;5039622;28;20075;-64
2024/01/14 07:09:47;;;;;;;97.30;38.07;;;;;;;0.50;100.00;101212.16;5040873;28;20029;-64
2024/01/14 07:12:13;;;;;;;91.50;35.37;;;;;;;0.50;100.00;101212.16;5041365;28;20130;-64
2024/01/14 07:14:38;;;;;;;91.43;35.90;;;;;;;0.47;100.00;101210.56;5041135;28;20056;-64
2024/01/14 07:17:03;;;;;;;94.03;36.97;;;;;;;0.48;100.00;101206.19;5041121;28;20062;-64
2024/01/14 07:19:29;;;;;;;94.30;36.80;;;;;;;0.49;100.00;101207.84;5039002;28;20064;-64
2024/01/14 07:21:54;;;;;;;99.63;36.37;;;;;;;0.49;100.00;101211.31;5040785;28;20411;-65
2024/01/14 07:24:19;;;;;;;91.57;36.00;;;;;;;0.49;100.00;101215.69;5040051;28;20032;-64
2024/01/14 07:26:45;;;;;;;92.03;35.63;;;;;;;0.50;100.00;101222.59;5042183;28;20488;-64
2024/01/14 07:29:10;;;;;;;92.07;36.70;;;;;;;0.49;100.00;101219.16;5046671;28;20025;-64
2024/01/14 07:31:35;;;;;;;93.57;37.30;;;;;;;0.49;100.00;101215.69;5041126;28;20025;-65
2024/01/14 07:34:01;;;;;;;88.40;35.43;;;;;;;0.48;100.00;101211.41;5041186;28;20774;-65
2024/01/14 07:36:26;;;;;;;100.33;37.57;;;;;;;0.46;100.00;101208.91;5047024;28;20050;-65
2024/01/14 07:38:54;;;;;;;96.67;36.90;;;;;;;0.44;100.00;101221.22;5047552;28;20128;-65
2024/01/14 07:41:19;;;;;;;96.97;35.40;;;;;;;0.46;100.00;101218.50;5044610;28;20021;-65
2024/01/14 07:43:44;;;;;;;95.00;35.00;;;;;;;0.45;100.00;101211.59;5041933;28;20036;-65
2024/01/14 07:46:10;;;;;;;95.17;36.40;;;;;;;0.44;100.00;101209.94;5042796;28;20065;-65
2024/01/14 07:48:37;;;;;;;96.27;35.40;;;;;;;0.46;100.00;101223.72;5041466;28;20608;-65
2024/01/14 07:51:03;;;;;;;98.43;36.93;;;;;;;0.48;100.00;101227.09;5044198;28;20108;-65
2024/01/14 07:53:28;;;;;;;99.10;37.00;;;;;;;0.46;100.00;101224.56;5041042;28;20116;-65
2024/01/14 07:55:54;;;;;;;94.40;35.77;;;;;;;0.48;100.00;101224.47;5039823;28;20394;-65
2024/01/14 07:58:19;;;;;;;97.37;37.13;;;;;;;0.46;100.00;101221.13;5040364;28;20082;-65
2024/01/14 08:00:45;;;;;;;101.27;37.40;;;;;;;0.45;100.00;101222.06;5038752;28;20398;-65
2024/01/14 08:03:11;;;;;;;93.80;36.83;;;;;;;0.47;100.00;101221.03;5052235;28;20028;-65
2024/01/14 08:05:38;;;;;;;101.00;36.83;;;;;;;0.47;100.00;101234.09;5037581;28;20021;-65
2024/01/14 08:08:04;;;;;;;94.73;38.17;;;;;;;0.50;100.00;101228.66;5041857;28;20040;-65
2024/01/14 08:10:30;;;;;;;92.13;35.67;;;;;;;0.51;100.00;101221.66;5038701;28;20060;-65
2024/01/14 08:12:55;;;;;;;93.23;36.63;;;;;;;0.52;100.00;101228.56;5032335;28;20112;-65
2024/01/14 08:15:20;;;;;;;85.70;33.77;;;;;;;0.52;100.00;101225.94;5035461;28;20043;-65
2024/01/14 08:17:46;;;;;;;86.30;34.13;;;;;;;0.53;100.00;101223.25;5040867;28;20029;-65
2024/01/14 08:20:11;;;;;;;90.37;36.07;;;;;;;0.54;100.00;101213.63;5037940;28;20040;-65
2024/01/14 08:22:37;;;;;;;89.37;34.93;;;;;;;0.53;100.00;101215.41;5035644;28;21000;-65
2024/01/14 08:25:04;;;;;;;88.33;35.43;;;;;;;0.55;100.00;101208.31;5037665;28;20908;-65
2024/01/14 08:27:30;;;;;;;83.33;32.17;;;;;;;0.57;100.00;101213.44;5041282;28;20052;-65
2024/01/14 08:29:55;;;;;;;89.03;35.07;;;;;;;0.56;100.00;101204.75;5037775;28;20100;-65
2024/01/14 08:32:20;;;;;;;86.80;34.23;;;;;;;0.59;100.00;101209.81;5041989;28;20041;-65
2024/01/14 08:34:46;;;;;;;77.80;33.57;;;;;;;0.62;100.00;101206.16;5040879;28;20036;-65
2024/01/14 08:37:11;;;;;;;85.43;33.73;;;;;;;0.63;100.00;101205.22;5039100;28;20027;-65
2024/01/14 08:39:36;;;;;;;80.97;33.30;;;;;;;0.65;100.00;101205.97;5040469;28;20430;-65
2024/01/14 08:42:02;;;;;;;80.40;34.07;;;;;;;0.64;100.00;101196.44;5042538;28;20086;-65
2024/01/14 08:44:27;;;;;;;84.93;34.20;;;;;;;0.66;100.00;101198.97;5033835;28;20021;-65
2024/01/14 08:46:54;;;;;;;80.40;32.90;;;;;;;0.65;100.00;101190.28;5039803;28;20039;-65
2024/01/14 08:49:20;;;;;;;81.97;33.27;;;;;;;0.67;100.00;101180.56;5037251;28;20343;-65
2024/01/14 08:51:45;;;;;;;79.80;34.80;;;;;;;0.68;100.00;101182.25;5034924;28;20491;-65
2024/01/14 08:54:11;;;;;;;85.00;35.10;;;;;;;0.70;100.00;101185.59;5036270;28;20032;-64
2024/01/14 08:56:36;;;;;;;86.43;34.70;;;;;;;0.72;100.00;101182.88;5033218;28;20025;-65
2024/01/14 08:59:01;;;;;;;86.47;34.87;;;;;;;0.75;100.00;101190.53;5036683;28;20044;-65
2024/01/14 09:01:27;;;;;;;87.33;36.87;;;;;;;0.79;100.00;101190.22;5038257;28;20017;-65
2024/01/14 09:03:53;;;;;;;87.07;35.40;;;;;;;0.78;100.00;101192.94;5038807;28;20052;-65
2024/01/14 09:06:18;;;;;;;87.20;35.73;;;;;;;0.83;100.00;101180.41;5035822;28;20108;-65
2024/01/14 09:08:43;;;;;;;92.43;37.17;;;;;;;0.80;100.00;101191.06;5039987;28;20021;-65
2024/01/14 09:11:09;;;;;;;90.33;36.33;;;;;;;0.81;100.00;101187.50;5039578;28;20532;-65
2024/01/14 09:13:35;;;;;;;83.40;37.00;;;;;;;0.81;100.00;101183.13;5040223;28;20371;-65
2024/01/14 09:16:01;;;;;;;91.57;38.57;;;;;;;0.84;100.00;101184.69;5034157;28;20563;-65
2024/01/14 09:18:26;;;;;;;96.07;38.33;;;;;;;0.84;100.00;101176.84;5036775;28;20021;-65
2024/01/14 09:20:51;;;;;;;91.53;37.77;;;;;;;0.84;100.00;101169.84;5039385;28;20086;-65
2024/01/14 09:23:17;;;;;;;90.53;38.20;;;;;;;0.85;100.00;101173.28;5039794;28;20040;-65
2024/01/14 09:25:42;;;;;;;93.43;38.10;;;;;;;0.85;100.00;101174.13;5037271;28;20036;-65
2024/01/14 09:28:07;;;;;;;96.13;38.73;;;;;;;0.85;100.00;101162.84;5036765;28;20108;-65
2024/01/14 09:30:33;;;;;;;97.70;37.77;;;;;;;0.88;100.00;101165.28;5037859;28;20382;-65
2024/01/14 09:32:58;;;;;;;93.97;38.30;;;;;;;0.88;100.00;101170.50;5042989;28;20025;-65
2024/01/14 09:35:24;;;;;;;103.17;38.00;;;;;;;0.88;100.00;101168.72;5043547;28;20051;-65
2024/01/14 09:37:50;;;;;;;94.43;38.17;;;;;;;0.89;100.00;101159.94;5040085;28;20093;-65
2024/01/14 09:40:18;;;;;;;88.83;37.37;;;;;;;0.85;100.00;101158.44;5039868;28;20097;-65
2024/01/14 09:42:47;;;;;;;89.00;34.90;;;;;;;0.86;100.00;101165.34;5039254;28;20040;-65
2024/01/14 09:45:13;;;;;;;92.60;37.60;;;;;;;0.87;100.00;101161.00;5038049;28;20041;-65
2024/01/14 09:47:39;;;;;;;91.90;37.17;;;;;;;0.84;100.00;101154.16;5047666;28;20024;-64
2024/01/14 09:50:06;;;;;;;96.37;36.13;;;;;;;0.86;100.00;101152.28;5038004;28;20033;-65
2024/01/14 09:52:32;;;;;;;93.77;38.10;;;;;;;0.87;100.00;101155.75;5039893;28;20543;-65
2024/01/14 09:54:57;;;;;;;91.53;37.83;;;;;;;0.88;100.00;101134.75;5034623;28;20040;-65
2024/01/14 09:57:24;;;;;;;94.13;36.80;;;;;;;0.91;100.00;101142.38;5039980;28;20029;-65
2024/01/14 09:59:52;;;;;;;88.57;37.00;;;;;;;0.92;100.00;101132.75;5043573;28;20029;-65
2024/01/14 10:02:19;;;;;;;92.23;37.17;;;;;;;0.97;100.00;101140.28;5037384;28;20036;-65
2024/01/14 10:04:45;;;;;;;96.70;37.37;;;;;;;0.98;100.00;101126.28;5033868;28;20033;-65
2024/01/14 10:07:11;;;;;;;95.03;36.50;;;;;;;0.98;100.00;101119.28;5039338;28;20070;-65
2024/01/14 10:09:40;;;;;;;92.87;37.77;;;;;;;1.00;100.00;101117.38;5035808;28;20025;-65
2024/01/14 10:12:08;;;;;;;92.20;38.05;;;;;;;1.03;100.00;101121.56;5041679;28;20112;-65
2024/01/14 10:14:34;;;;;;;85.83;36.07;;;;;;;1.04;100.00;101123.25;5039513;28;20024;-65
2024/01/14 10:17:00;;;;;;;84.13;35.43;;;;;;;1.03;100.00;101116.34;5038040;28;20040;-65
2024/01/14 10:19:25;;;;;;;86.40;35.37;;;;;;;1.07;100.00;101123.03;5038983;28;20036;-64
2024/01/14 10:21:55;;;;;;;82.47;33.70;;;;;;;1.06;100.00;101116.13;5034592;28;20049;-65
2024/01/14 10:24:20;;;;;;;;;;;;;;;1.09;100.00;101101.06;5030275;28;20957;-65
2024/01/14 10:26:46;;;;;;;80.30;32.50;;;;;;;1.10;100.00;101107.13;5026222;28;19924;-65
2024/01/14 10:29:11;;;;;;;76.53;33.00;;;;;;;1.12;100.00;101107.88;5036724;28;20031;-65
2024/01/14 10:31:36;;;;;;;80.13;34.20;;;;;;;1.12;100.00;101100.88;5027451;28;20036;-65
2024/01/14 10:34:02;;;;;;;74.07;32.60;;;;;;;1.14;100.00;101116.44;5036336;28;20041;-65
2024/01/14 10:36:28;;;;;;;70.50;31.20;;;;;;;1.15;100.00;101105.03;5038410;28;20102;-64
2024/01/14 10:38:56;;;;;;;71.23;29.80;;;;;;;1.17;100.00;101111.03;5047335;28;20033;-65
2024/01/14 10:41:22;;;;;;;68.17;31.20;;;;;;;1.14;100.00;101106.00;5038613;28;20037;-65
2024/01/14 10:43:48;;;;;;;71.77;32.80;;;;;;;1.12;100.00;101100.03;5040177;28;20032;-65
2024/01/14 10:46:14;;;;;;;71.87;31.40;;;;;;;1.11;100.00;101101.81;5037278;28;20032;-64
2024/01/14 10:48:41;;;;;;;69.83;30.20;;;;;;;1.05;100.00;101076.06;5038268;28;20128;-65
2024/01/14 10:51:10;;;;;;;72.37;31.80;;;;;;;1.08;100.00;101080.25;5034836;28;20036;-65
2024/01/14 10:53:57;;;;;;;71.87;30.87;;;;;;;1.09;100.00;101081.94;5038507;28;20040;-65
2024/01/14 10:56:31;;;;;;;69.17;31.57;;;;;;;1.05;100.00;101065.59;5034419;28;20337;-65